< < Back
Terminal Aerodrome Forecast


Current Version              Previous Versions:   1  2  3  4  5  6  7  8  9  

Terminal Aerodrome Forecast

465
FTUS42 KCAE 251814 AAA
TAFCAE
TAF AMD
KCAE 251814Z 2518/2618 10007KT P6SM SCT045
     FM260900 VRB03KT 4SM BR BKN006
     FM261400 VRB03KT 5SM BR BKN020
     FM261600 10006KT P6SM BKN050=

Latest METAR

181
SAUS80 KWBC 251900 CCA
MTRCAE
METAR KCAE 251856Z 13005KT 10SM FEW055 FEW180 32/18 A3005 RMK AO2 SLP172
T03170183


USA.gov is the U.S. government's official web portal to all federal, state and local government web resources and services.